HISTORICAL SENSOR DATA

Sensor Data Report

DB LIVE
CURRENT TIME--:--:--
DEVICE NETWORK Gateway Status
13 ESP · realtime ~1s · history 60s
Weather WS-MOD-01
ONLINE
Actuator ACT-MOD-01
OFFLINE
Mainboard L3 MB-L3-01
ONLINE
Mainboard L5 MB-L5-01
ONLINE
Remote AC AC-REMOTE-01
ONLINE
PZEM L3-01 PWR-L3-01
OFFLINE
PZEM L3-02 PWR-L3-02
OFFLINE
PZEM L3-03 PWR-L3-03
OFFLINE
PZEM L3-04 PWR-L3-04
OFFLINE
PZEM L5-01 PWR-L5-01
ONLINE
PZEM L5-02 PWR-L5-02
WARNING
PZEM L5-03 PWR-L5-03
OFFLINE
PZEM L5-04 PWR-L5-04
OFFLINE
REPORT FILTER

Periode & Sensor

DATABASE HISTORY
RESET
QUICK RANGE Hari ini 7 hari 30 hari
PERIODE08 Aug 2026sampai 06 Sep 2026
TOTAL DATA52,560sensor readings
MINIMUM-0.50sesuai filter
AVERAGE97.22sesuai filter
MAXIMUM32,564.20sesuai filter
REPORT RESULT

Data Sensor

08/08/2026 — 06/09/2026 EXPORT CSV
NOTANGGALWAKTUDEVICECHANNELSENSORVALUEUNIT
2701 06/09/2026 19:03:00 MB-L3-01Mainboard Lantai 3 L3-LUX-02 Illuminance / LUX 2 615.80 lux
2702 06/09/2026 19:03:00 WS-MOD-01Weather Station Module WS-WIND Kecepatan Angin 3.35 m/s
2703 06/09/2026 19:03:00 MB-L3-01Mainboard Lantai 3 L3-AI-02 Analog Input 2 3.12 V
2704 06/09/2026 19:03:00 PWR-L5-01Power Meter L5 PZEM 01 PZEM-L5-01-FREQ PZEM L5-01 Frequency 50.00 Hz
2705 06/09/2026 19:03:00 MB-L5-01Mainboard Lantai 5 L5-SHT-02-T SHT20 2 Temperature 29.30 °C
2706 06/09/2026 19:03:00 MB-L5-01Mainboard Lantai 5 L5-LUX-04 Illuminance / LUX 4 262.30 lux
2707 06/09/2026 19:03:00 MB-L3-01Mainboard Lantai 3 L3-AI-04 Analog Input 4 3.12 V
2708 06/09/2026 19:03:00 MB-L3-01Mainboard Lantai 3 L3-RAD-01 Radiation 1 1.00 W/m²
2709 06/09/2026 19:03:00 MB-L5-01Mainboard Lantai 5 L5-BGT-03 Black Globe Temperature 3 27.50 °C
2710 06/09/2026 19:03:00 MB-L5-01Mainboard Lantai 5 L5-BGT-01 Black Globe Temperature 1 27.80 °C
2711 06/09/2026 19:03:00 MB-L5-01Mainboard Lantai 5 L5-LUX-02 Illuminance / LUX 2 174.40 lux
2712 06/09/2026 19:03:00 MB-L3-01Mainboard Lantai 3 L3-AI-06 Analog Input 6 3.12 V
2713 06/09/2026 19:03:00 PWR-L5-01Power Meter L5 PZEM 01 PZEM-L5-01-CURR PZEM L5-01 Current 0.12 A
2714 06/09/2026 19:03:00 MB-L3-01Mainboard Lantai 3 L3-SHT-02-T SHT20 2 Temperature 29.50 °C
2715 06/09/2026 19:03:00 WS-MOD-01Weather Station Module WS-DIR Arah Angin 147.30 °
2716 06/09/2026 19:03:00 MB-L3-01Mainboard Lantai 3 L3-SHT-03-T SHT20 3 Temperature 29.70 °C
2717 06/09/2026 19:03:00 MB-L5-01Mainboard Lantai 5 L5-SHT-02-RH SHT20 2 Humidity 44.40 %RH
2718 06/09/2026 19:03:00 PWR-L5-01Power Meter L5 PZEM 01 PZEM-L5-01-PF PZEM L5-01 Power Factor 0.41
2719 06/09/2026 19:03:00 MB-L5-01Mainboard Lantai 5 L5-LUX-01 Illuminance / LUX 1 283.10 lux
2720 06/09/2026 19:03:00 MB-L5-01Mainboard Lantai 5 L5-HFT-01 Heat Flow Temperature 1 25.90 °C
2721 06/09/2026 19:03:00 MB-L5-01Mainboard Lantai 5 L5-SHT-03-T SHT20 3 Temperature 29.40 °C
2722 06/09/2026 19:03:00 MB-L5-01Mainboard Lantai 5 L5-AI-01 Analog Input 1 3.05 V
2723 06/09/2026 19:03:00 MB-L5-01Mainboard Lantai 5 L5-AI-05 Analog Input 5 3.05 V
2724 06/09/2026 19:03:00 MB-L5-01Mainboard Lantai 5 L5-AI-03 Analog Input 3 3.05 V
2725 06/09/2026 19:03:00 MB-L5-01Mainboard Lantai 5 L5-ST-01 Surface Temperature 1 26.20 °C
2726 06/09/2026 19:03:00 MB-L5-01Mainboard Lantai 5 L5-SHT-03-RH SHT20 3 Humidity 44.30 %RH
2727 06/09/2026 19:03:00 PWR-L5-01Power Meter L5 PZEM 01 PZEM-L5-01-POWER PZEM L5-01 Active Power 10.50 W
2728 06/09/2026 19:03:00 MB-L3-01Mainboard Lantai 3 L3-AI-01 Analog Input 1 3.12 V
2729 06/09/2026 19:03:00 WS-MOD-01Weather Station Module WS-PRES Tekanan Udara 911.00 hPa
2730 06/09/2026 19:03:00 MB-L3-01Mainboard Lantai 3 L3-AI-03 Analog Input 3 3.12 V
2731 06/09/2026 19:03:00 MB-L3-01Mainboard Lantai 3 L3-LUX-04 Illuminance / LUX 4 585.10 lux
2732 06/09/2026 19:03:00 MB-L3-01Mainboard Lantai 3 L3-LUX-01 Illuminance / LUX 1 503.10 lux
2733 06/09/2026 19:03:00 MB-L3-01Mainboard Lantai 3 L3-AI-05 Analog Input 5 3.12 V
2734 06/09/2026 19:03:00 MB-L5-01Mainboard Lantai 5 L5-BGT-02 Black Globe Temperature 2 27.40 °C
2735 06/09/2026 19:03:00 MB-L3-01Mainboard Lantai 3 L3-SHT-02-RH SHT20 2 Humidity 43.40 %RH
2736 06/09/2026 19:03:00 WS-MOD-01Weather Station Module WS-RH Kelembapan Udara 70.00 %RH
2737 06/09/2026 19:03:00 MB-L3-01Mainboard Lantai 3 L3-RAD-02 Radiation 2 1.00 W/m²
2738 06/09/2026 19:03:00 PWR-L5-01Power Meter L5 PZEM 01 PZEM-L5-01-ENERGY PZEM L5-01 Energy 0.02 kWh
2739 06/09/2026 19:03:00 MB-L5-01Mainboard Lantai 5 L5-LUX-06 Illuminance / LUX 6 275.50 lux
2740 06/09/2026 19:03:00 MB-L3-01Mainboard Lantai 3 L3-LUX-06 Illuminance / LUX 6 539.40 lux
2741 06/09/2026 19:02:00 MB-L5-01Mainboard Lantai 5 L5-SHT-02-T SHT20 2 Temperature 29.30 °C
2742 06/09/2026 19:02:00 MB-L5-01Mainboard Lantai 5 L5-LUX-04 Illuminance / LUX 4 262.00 lux
2743 06/09/2026 19:02:00 MB-L3-01Mainboard Lantai 3 L3-AI-04 Analog Input 4 3.12 V
2744 06/09/2026 19:02:00 MB-L3-01Mainboard Lantai 3 L3-RAD-01 Radiation 1 1.00 W/m²
2745 06/09/2026 19:02:00 MB-L5-01Mainboard Lantai 5 L5-BGT-03 Black Globe Temperature 3 27.40 °C
2746 06/09/2026 19:02:00 MB-L5-01Mainboard Lantai 5 L5-BGT-01 Black Globe Temperature 1 27.60 °C
2747 06/09/2026 19:02:00 MB-L5-01Mainboard Lantai 5 L5-LUX-02 Illuminance / LUX 2 174.00 lux
2748 06/09/2026 19:02:00 MB-L3-01Mainboard Lantai 3 L3-AI-06 Analog Input 6 3.12 V
2749 06/09/2026 19:02:00 PWR-L5-01Power Meter L5 PZEM 01 PZEM-L5-01-CURR PZEM L5-01 Current 0.12 A
2750 06/09/2026 19:02:00 MB-L3-01Mainboard Lantai 3 L3-SHT-02-T SHT20 2 Temperature 29.60 °C
2751 06/09/2026 19:02:00 WS-MOD-01Weather Station Module WS-DIR Arah Angin 333.10 °
2752 06/09/2026 19:02:00 MB-L3-01Mainboard Lantai 3 L3-SHT-03-T SHT20 3 Temperature 29.60 °C
2753 06/09/2026 19:02:00 MB-L5-01Mainboard Lantai 5 L5-SHT-02-RH SHT20 2 Humidity 44.40 %RH
2754 06/09/2026 19:02:00 PWR-L5-01Power Meter L5 PZEM 01 PZEM-L5-01-PF PZEM L5-01 Power Factor 0.40
2755 06/09/2026 19:02:00 MB-L5-01Mainboard Lantai 5 L5-LUX-01 Illuminance / LUX 1 280.80 lux
2756 06/09/2026 19:02:00 MB-L5-01Mainboard Lantai 5 L5-HFT-01 Heat Flow Temperature 1 25.90 °C
2757 06/09/2026 19:02:00 MB-L5-01Mainboard Lantai 5 L5-SHT-03-T SHT20 3 Temperature 29.50 °C
2758 06/09/2026 19:02:00 MB-L5-01Mainboard Lantai 5 L5-AI-01 Analog Input 1 3.05 V
2759 06/09/2026 19:02:00 MB-L5-01Mainboard Lantai 5 L5-AI-05 Analog Input 5 3.05 V
2760 06/09/2026 19:02:00 MB-L5-01Mainboard Lantai 5 L5-AI-03 Analog Input 3 3.05 V
2761 06/09/2026 19:02:00 MB-L5-01Mainboard Lantai 5 L5-ST-01 Surface Temperature 1 26.20 °C
2762 06/09/2026 19:02:00 MB-L5-01Mainboard Lantai 5 L5-SHT-03-RH SHT20 3 Humidity 44.30 %RH
2763 06/09/2026 19:02:00 PWR-L5-01Power Meter L5 PZEM 01 PZEM-L5-01-POWER PZEM L5-01 Active Power 10.60 W
2764 06/09/2026 19:02:00 MB-L3-01Mainboard Lantai 3 L3-AI-01 Analog Input 1 3.12 V
2765 06/09/2026 19:02:00 WS-MOD-01Weather Station Module WS-PRES Tekanan Udara 911.00 hPa
2766 06/09/2026 19:02:00 MB-L3-01Mainboard Lantai 3 L3-AI-03 Analog Input 3 3.12 V
2767 06/09/2026 19:02:00 MB-L3-01Mainboard Lantai 3 L3-LUX-04 Illuminance / LUX 4 585.30 lux
2768 06/09/2026 19:02:00 MB-L3-01Mainboard Lantai 3 L3-LUX-01 Illuminance / LUX 1 503.10 lux
2769 06/09/2026 19:02:00 MB-L3-01Mainboard Lantai 3 L3-AI-05 Analog Input 5 3.12 V
2770 06/09/2026 19:02:00 MB-L5-01Mainboard Lantai 5 L5-BGT-02 Black Globe Temperature 2 27.40 °C
2771 06/09/2026 19:02:00 MB-L3-01Mainboard Lantai 3 L3-SHT-02-RH SHT20 2 Humidity 43.40 %RH
2772 06/09/2026 19:02:00 WS-MOD-01Weather Station Module WS-RH Kelembapan Udara 70.10 %RH
2773 06/09/2026 19:02:00 MB-L3-01Mainboard Lantai 3 L3-RAD-02 Radiation 2 1.00 W/m²
2774 06/09/2026 19:02:00 PWR-L5-01Power Meter L5 PZEM 01 PZEM-L5-01-ENERGY PZEM L5-01 Energy 0.02 kWh
2775 06/09/2026 19:02:00 MB-L5-01Mainboard Lantai 5 L5-LUX-06 Illuminance / LUX 6 275.10 lux
2776 06/09/2026 19:02:00 MB-L3-01Mainboard Lantai 3 L3-LUX-06 Illuminance / LUX 6 541.00 lux
2777 06/09/2026 19:02:00 MB-L5-01Mainboard Lantai 5 L5-ST-02 Surface Temperature 2 25.70 °C
2778 06/09/2026 19:02:00 MB-L5-01Mainboard Lantai 5 L5-SHT-01-RH SHT20 1 Humidity 44.30 %RH
2779 06/09/2026 19:02:00 MB-L3-01Mainboard Lantai 3 L3-SHT-01-RH SHT20 1 Humidity 44.00 %RH
2780 06/09/2026 19:02:00 WS-MOD-01Weather Station Module WS-TEMP Suhu Udara 21.90 °C
2781 06/09/2026 19:02:00 MB-L5-01Mainboard Lantai 5 L5-HFT-02 Heat Flow Temperature 2 25.40 °C
2782 06/09/2026 19:02:00 MB-L5-01Mainboard Lantai 5 L5-SHT-01-T SHT20 1 Temperature 29.40 °C
2783 06/09/2026 19:02:00 MB-L5-01Mainboard Lantai 5 L5-RAD-01 Radiation 1 1.00 W/m²
2784 06/09/2026 19:02:00 MB-L3-01Mainboard Lantai 3 L3-SHT-03-RH SHT20 3 Humidity 43.60 %RH
2785 06/09/2026 19:02:00 MB-L5-01Mainboard Lantai 5 L5-AI-06 Analog Input 6 3.05 V
2786 06/09/2026 19:02:00 PWR-L5-01Power Meter L5 PZEM 01 PZEM-L5-01-VOLT PZEM L5-01 Voltage 222.20 V
2787 06/09/2026 19:02:00 MB-L5-01Mainboard Lantai 5 L5-AI-04 Analog Input 4 3.05 V
2788 06/09/2026 19:02:00 MB-L5-01Mainboard Lantai 5 L5-AI-02 Analog Input 2 3.05 V
2789 06/09/2026 19:02:00 MB-L5-01Mainboard Lantai 5 L5-RAD-02 Radiation 2 1.00 W/m²
2790 06/09/2026 19:02:00 MB-L3-01Mainboard Lantai 3 L3-LUX-05 Illuminance / LUX 5 390.30 lux
2791 06/09/2026 19:02:00 MB-L3-01Mainboard Lantai 3 L3-LUX-03 Illuminance / LUX 3 733.60 lux
2792 06/09/2026 19:02:00 MB-L3-01Mainboard Lantai 3 L3-SHT-01-T SHT20 1 Temperature 29.30 °C
2793 06/09/2026 19:02:00 MB-L5-01Mainboard Lantai 5 L5-LUX-03 Illuminance / LUX 3 396.40 lux
2794 06/09/2026 19:02:00 MB-L3-01Mainboard Lantai 3 L3-LUX-02 Illuminance / LUX 2 615.60 lux
2795 06/09/2026 19:02:00 WS-MOD-01Weather Station Module WS-WIND Kecepatan Angin 1.39 m/s
2796 06/09/2026 19:02:00 MB-L3-01Mainboard Lantai 3 L3-AI-02 Analog Input 2 3.12 V
2797 06/09/2026 19:02:00 PWR-L5-01Power Meter L5 PZEM 01 PZEM-L5-01-FREQ PZEM L5-01 Frequency 50.00 Hz
2798 06/09/2026 19:01:00 WS-MOD-01Weather Station Module WS-DIR Arah Angin 120.10 °
2799 06/09/2026 19:01:00 MB-L3-01Mainboard Lantai 3 L3-SHT-03-T SHT20 3 Temperature 29.50 °C
2800 06/09/2026 19:01:00 MB-L5-01Mainboard Lantai 5 L5-SHT-02-RH SHT20 2 Humidity 44.30 %RH
Menampilkan maksimal 100 data per halaman